sensor_id;sensor_type;location;lat;lon;timestamp;P1;durP1;ratioP1;P2;durP2;ratioP2
40290;SDS011;26000;48.304;13.626;2022-11-15T00:01:11;11.93;;;8.63;;
40290;SDS011;26000;48.304;13.626;2022-11-15T00:03:43;14.30;;;8.75;;
40290;SDS011;26000;48.304;13.626;2022-11-15T00:06:18;11.95;;;8.40;;
40290;SDS011;26000;48.304;13.626;2022-11-15T00:08:46;9.10;;;7.22;;
40290;SDS011;26000;48.304;13.626;2022-11-15T00:14:10;9.98;;;7.32;;
40290;SDS011;26000;48.304;13.626;2022-11-15T00:16:38;10.75;;;7.97;;
40290;SDS011;26000;48.304;13.626;2022-11-15T00:19:12;10.25;;;7.57;;
40290;SDS011;26000;48.304;13.626;2022-11-15T00:21:50;14.93;;;9.30;;
40290;SDS011;26000;48.304;13.626;2022-11-15T00:24:18;11.85;;;8.80;;
40290;SDS011;26000;48.304;13.626;2022-11-15T00:26:44;17.02;;;9.95;;
40290;SDS011;26000;48.304;13.626;2022-11-15T00:29:18;17.75;;;10.60;;
40290;SDS011;26000;48.304;13.626;2022-11-15T00:31:44;14.13;;;9.40;;
40290;SDS011;26000;48.304;13.626;2022-11-15T00:34:13;14.38;;;9.52;;
40290;SDS011;26000;48.304;13.626;2022-11-15T00:36:39;15.73;;;10.82;;
40290;SDS011;26000;48.304;13.626;2022-11-15T00:39:12;18.27;;;11.88;;
40290;SDS011;26000;48.304;13.626;2022-11-15T00:41:39;16.90;;;11.50;;
40290;SDS011;26000;48.304;13.626;2022-11-15T00:44:07;18.65;;;12.32;;
40290;SDS011;26000;48.304;13.626;2022-11-15T00:46:33;18.33;;;10.52;;
40290;SDS011;26000;48.304;13.626;2022-11-15T00:48:58;19.48;;;10.52;;
40290;SDS011;26000;48.304;13.626;2022-11-15T00:51:24;12.45;;;9.43;;
40290;SDS011;26000;48.304;13.626;2022-11-15T00:53:56;13.57;;;9.57;;
40290;SDS011;26000;48.304;13.626;2022-11-15T00:56:25;13.90;;;9.52;;
40290;SDS011;26000;48.304;13.626;2022-11-15T00:58:50;13.40;;;8.77;;
40290;SDS011;26000;48.304;13.626;2022-11-15T01:01:17;16.08;;;10.48;;
40290;SDS011;26000;48.304;13.626;2022-11-15T01:03:42;18.08;;;11.02;;
40290;SDS011;26000;48.304;13.626;2022-11-15T01:06:08;15.35;;;9.63;;
40290;SDS011;26000;48.304;13.626;2022-11-15T01:08:34;12.52;;;9.10;;
40290;SDS011;26000;48.304;13.626;2022-11-15T01:11:03;14.18;;;9.80;;
40290;SDS011;26000;48.304;13.626;2022-11-15T01:13:31;15.15;;;9.88;;
40290;SDS011;26000;48.304;13.626;2022-11-15T01:15:59;16.05;;;9.48;;
40290;SDS011;26000;48.304;13.626;2022-11-15T01:18:31;13.70;;;9.50;;
40290;SDS011;26000;48.304;13.626;2022-11-15T01:20:56;16.00;;;9.73;;
40290;SDS011;26000;48.304;13.626;2022-11-15T01:23:22;13.95;;;9.05;;
40290;SDS011;26000;48.304;13.626;2022-11-15T01:25:47;14.75;;;9.52;;
40290;SDS011;26000;48.304;13.626;2022-11-15T01:28:13;11.80;;;8.43;;
40290;SDS011;26000;48.304;13.626;2022-11-15T01:30:39;13.82;;;9.60;;
40290;SDS011;26000;48.304;13.626;2022-11-15T01:33:04;13.25;;;9.50;;
40290;SDS011;26000;48.304;13.626;2022-11-15T01:35:30;14.63;;;10.45;;
40290;SDS011;26000;48.304;13.626;2022-11-15T01:37:56;13.95;;;9.50;;
40290;SDS011;26000;48.304;13.626;2022-11-15T01:40:22;14.05;;;9.13;;
40290;SDS011;26000;48.304;13.626;2022-11-15T01:42:47;10.02;;;7.60;;
40290;SDS011;26000;48.304;13.626;2022-11-15T01:45:14;13.43;;;8.48;;
40290;SDS011;26000;48.304;13.626;2022-11-15T01:54:06;10.32;;;7.50;;
40290;SDS011;26000;48.304;13.626;2022-11-15T01:56:38;12.30;;;8.40;;
40290;SDS011;26000;48.304;13.626;2022-11-15T01:59:09;17.08;;;10.27;;
40290;SDS011;26000;48.304;13.626;2022-11-15T02:01:36;13.88;;;9.00;;
40290;SDS011;26000;48.304;13.626;2022-11-15T02:06:36;14.70;;;10.15;;
40290;SDS011;26000;48.304;13.626;2022-11-15T02:09:03;14.93;;;8.82;;
40290;SDS011;26000;48.304;13.626;2022-11-15T02:11:28;10.88;;;8.18;;
40290;SDS011;26000;48.304;13.626;2022-11-15T02:13:55;11.27;;;8.20;;
40290;SDS011;26000;48.304;13.626;2022-11-15T02:28:38;12.10;;;9.23;;
40290;SDS011;26000;48.304;13.626;2022-11-15T02:34:06;14.63;;;9.73;;
40290;SDS011;26000;48.304;13.626;2022-11-15T02:39:17;19.48;;;10.45;;
40290;SDS011;26000;48.304;13.626;2022-11-15T02:44:32;13.25;;;9.55;;
40290;SDS011;26000;48.304;13.626;2022-11-15T02:47:08;14.45;;;9.43;;
40290;SDS011;26000;48.304;13.626;2022-11-15T02:50:13;28.13;;;13.63;;
40290;SDS011;26000;48.304;13.626;2022-11-15T02:52:33;16.42;;;11.35;;
40290;SDS011;26000;48.304;13.626;2022-11-15T02:54:59;20.85;;;11.25;;
40290;SDS011;26000;48.304;13.626;2022-11-15T03:00:08;16.20;;;11.52;;
40290;SDS011;26000;48.304;13.626;2022-11-15T03:05:35;15.25;;;10.77;;
40290;SDS011;26000;48.304;13.626;2022-11-15T03:08:17;13.85;;;10.77;;
40290;SDS011;26000;48.304;13.626;2022-11-15T03:11:19;15.35;;;10.52;;
40290;SDS011;26000;48.304;13.626;2022-11-15T03:16:34;13.27;;;9.85;;
40290;SDS011;26000;48.304;13.626;2022-11-15T03:21:34;14.45;;;10.60;;
40290;SDS011;26000;48.304;13.626;2022-11-15T03:24:02;15.98;;;10.77;;
40290;SDS011;26000;48.304;13.626;2022-11-15T03:26:30;15.15;;;10.80;;
40290;SDS011;26000;48.304;13.626;2022-11-15T03:29:01;14.25;;;10.38;;
40290;SDS011;26000;48.304;13.626;2022-11-15T03:31:37;15.45;;;10.48;;
40290;SDS011;26000;48.304;13.626;2022-11-15T03:34:19;13.88;;;9.63;;
40290;SDS011;26000;48.304;13.626;2022-11-15T03:37:07;17.13;;;11.32;;
40290;SDS011;26000;48.304;13.626;2022-11-15T03:39:36;14.60;;;10.88;;
40290;SDS011;26000;48.304;13.626;2022-11-15T03:42:04;17.70;;;11.48;;
40290;SDS011;26000;48.304;13.626;2022-11-15T03:49:59;16.58;;;11.88;;
40290;SDS011;26000;48.304;13.626;2022-11-15T03:52:34;17.50;;;12.05;;
40290;SDS011;26000;48.304;13.626;2022-11-15T03:55:01;18.42;;;12.82;;
40290;SDS011;26000;48.304;13.626;2022-11-15T03:57:28;16.02;;;11.40;;
40290;SDS011;26000;48.304;13.626;2022-11-15T03:59:54;16.75;;;12.30;;
40290;SDS011;26000;48.304;13.626;2022-11-15T04:02:20;15.10;;;10.52;;
40290;SDS011;26000;48.304;13.626;2022-11-15T04:04:45;16.45;;;10.95;;
40290;SDS011;26000;48.304;13.626;2022-11-15T04:07:11;13.85;;;10.57;;
40290;SDS011;26000;48.304;13.626;2022-11-15T04:09:36;14.15;;;10.57;;
40290;SDS011;26000;48.304;13.626;2022-11-15T04:12:22;16.25;;;11.48;;
40290;SDS011;26000;48.304;13.626;2022-11-15T04:14:55;17.25;;;12.25;;
40290;SDS011;26000;48.304;13.626;2022-11-15T04:17:32;16.90;;;12.32;;
40290;SDS011;26000;48.304;13.626;2022-11-15T04:19:58;16.73;;;11.30;;
40290;SDS011;26000;48.304;13.626;2022-11-15T04:22:42;14.68;;;10.60;;
40290;SDS011;26000;48.304;13.626;2022-11-15T04:25:26;16.95;;;11.07;;
40290;SDS011;26000;48.304;13.626;2022-11-15T04:27:52;15.05;;;11.38;;
40290;SDS011;26000;48.304;13.626;2022-11-15T04:30:17;17.55;;;11.70;;
40290;SDS011;26000;48.304;13.626;2022-11-15T04:32:43;17.33;;;11.70;;
40290;SDS011;26000;48.304;13.626;2022-11-15T04:35:09;16.50;;;11.90;;
40290;SDS011;26000;48.304;13.626;2022-11-15T04:37:34;17.45;;;11.15;;
40290;SDS011;26000;48.304;13.626;2022-11-15T04:40:00;16.02;;;11.02;;
40290;SDS011;26000;48.304;13.626;2022-11-15T04:42:25;14.77;;;10.43;;
40290;SDS011;26000;48.304;13.626;2022-11-15T04:44:51;16.02;;;11.25;;
40290;SDS011;26000;48.304;13.626;2022-11-15T04:47:16;21.45;;;15.00;;
40290;SDS011;26000;48.304;13.626;2022-11-15T04:49:42;17.75;;;13.07;;
40290;SDS011;26000;48.304;13.626;2022-11-15T04:52:08;17.65;;;11.57;;
40290;SDS011;26000;48.304;13.626;2022-11-15T04:54:34;16.88;;;12.07;;
40290;SDS011;26000;48.304;13.626;2022-11-15T04:57:00;14.80;;;11.15;;
40290;SDS011;26000;48.304;13.626;2022-11-15T04:59:25;15.55;;;10.80;;
40290;SDS011;26000;48.304;13.626;2022-11-15T05:01:51;16.65;;;11.65;;
40290;SDS011;26000;48.304;13.626;2022-11-15T05:04:16;17.45;;;11.05;;
40290;SDS011;26000;48.304;13.626;2022-11-15T05:06:46;20.75;;;12.02;;
40290;SDS011;26000;48.304;13.626;2022-11-15T05:09:12;15.93;;;12.05;;
40290;SDS011;26000;48.304;13.626;2022-11-15T05:11:38;17.75;;;12.52;;
40290;SDS011;26000;48.304;13.626;2022-11-15T05:14:04;20.58;;;13.13;;
40290;SDS011;26000;48.304;13.626;2022-11-15T05:16:30;19.70;;;12.68;;
40290;SDS011;26000;48.304;13.626;2022-11-15T05:18:55;20.17;;;12.15;;
40290;SDS011;26000;48.304;13.626;2022-11-15T05:21:22;18.77;;;12.07;;
40290;SDS011;26000;48.304;13.626;2022-11-15T05:23:47;17.88;;;10.93;;
40290;SDS011;26000;48.304;13.626;2022-11-15T05:26:14;18.55;;;12.13;;
40290;SDS011;26000;48.304;13.626;2022-11-15T05:28:41;17.52;;;11.68;;
40290;SDS011;26000;48.304;13.626;2022-11-15T05:31:08;18.00;;;12.18;;
40290;SDS011;26000;48.304;13.626;2022-11-15T05:33:40;18.10;;;12.48;;
40290;SDS011;26000;48.304;13.626;2022-11-15T05:36:09;18.40;;;13.43;;
40290;SDS011;26000;48.304;13.626;2022-11-15T05:38:36;16.58;;;11.80;;
40290;SDS011;26000;48.304;13.626;2022-11-15T05:41:02;19.95;;;13.68;;
40290;SDS011;26000;48.304;13.626;2022-11-15T05:43:29;16.42;;;11.82;;
40290;SDS011;26000;48.304;13.626;2022-11-15T05:45:57;17.08;;;12.23;;
40290;SDS011;26000;48.304;13.626;2022-11-15T05:48:24;16.15;;;11.27;;
40290;SDS011;26000;48.304;13.626;2022-11-15T05:50:50;17.08;;;11.80;;
40290;SDS011;26000;48.304;13.626;2022-11-15T05:53:17;18.05;;;11.73;;
40290;SDS011;26000;48.304;13.626;2022-11-15T05:55:46;21.30;;;11.80;;
40290;SDS011;26000;48.304;13.626;2022-11-15T05:58:12;17.40;;;11.50;;
40290;SDS011;26000;48.304;13.626;2022-11-15T06:00:37;16.50;;;11.27;;
40290;SDS011;26000;48.304;13.626;2022-11-15T06:03:04;18.40;;;12.00;;
40290;SDS011;26000;48.304;13.626;2022-11-15T06:05:29;19.25;;;11.65;;
40290;SDS011;26000;48.304;13.626;2022-11-15T06:07:58;16.80;;;12.00;;
40290;SDS011;26000;48.304;13.626;2022-11-15T06:10:24;20.63;;;12.73;;
40290;SDS011;26000;48.304;13.626;2022-11-15T06:13:00;21.70;;;13.15;;
40290;SDS011;26000;48.304;13.626;2022-11-15T06:15:26;35.20;;;20.02;;
40290;SDS011;26000;48.304;13.626;2022-11-15T06:17:52;29.83;;;18.73;;
40290;SDS011;26000;48.304;13.626;2022-11-15T06:20:22;27.02;;;15.98;;
40290;SDS011;26000;48.304;13.626;2022-11-15T06:22:56;25.70;;;15.40;;
40290;SDS011;26000;48.304;13.626;2022-11-15T06:25:26;23.67;;;14.98;;
40290;SDS011;26000;48.304;13.626;2022-11-15T06:27:52;22.13;;;14.55;;
40290;SDS011;26000;48.304;13.626;2022-11-15T06:30:19;22.65;;;13.65;;
40290;SDS011;26000;48.304;13.626;2022-11-15T06:32:45;23.02;;;14.30;;
40290;SDS011;26000;48.304;13.626;2022-11-15T06:35:11;23.88;;;14.48;;
40290;SDS011;26000;48.304;13.626;2022-11-15T06:37:37;32.65;;;21.17;;
40290;SDS011;26000;48.304;13.626;2022-11-15T06:40:03;34.35;;;24.00;;
40290;SDS011;26000;48.304;13.626;2022-11-15T06:42:29;28.30;;;18.23;;
40290;SDS011;26000;48.304;13.626;2022-11-15T06:44:54;23.35;;;15.13;;
40290;SDS011;26000;48.304;13.626;2022-11-15T06:47:20;22.33;;;14.65;;
40290;SDS011;26000;48.304;13.626;2022-11-15T06:49:45;57.67;;;37.90;;
40290;SDS011;26000;48.304;13.626;2022-11-15T06:52:11;92.43;;;58.60;;
40290;SDS011;26000;48.304;13.626;2022-11-15T06:54:37;66.55;;;43.10;;
40290;SDS011;26000;48.304;13.626;2022-11-15T06:57:03;37.92;;;24.92;;
40290;SDS011;26000;48.304;13.626;2022-11-15T06:59:29;23.02;;;16.75;;
40290;SDS011;26000;48.304;13.626;2022-11-15T07:01:55;21.52;;;14.95;;
40290;SDS011;26000;48.304;13.626;2022-11-15T07:04:21;20.45;;;13.70;;
40290;SDS011;26000;48.304;13.626;2022-11-15T07:06:46;21.10;;;14.40;;
40290;SDS011;26000;48.304;13.626;2022-11-15T07:09:15;19.67;;;13.57;;
40290;SDS011;26000;48.304;13.626;2022-11-15T07:11:41;78.28;;;39.70;;
40290;SDS011;26000;48.304;13.626;2022-11-15T07:14:07;65.05;;;36.85;;
40290;SDS011;26000;48.304;13.626;2022-11-15T07:16:33;28.48;;;20.17;;
40290;SDS011;26000;48.304;13.626;2022-11-15T07:18:59;32.92;;;20.25;;
40290;SDS011;26000;48.304;13.626;2022-11-15T07:21:24;49.13;;;27.08;;
40290;SDS011;26000;48.304;13.626;2022-11-15T07:23:50;41.75;;;23.20;;
40290;SDS011;26000;48.304;13.626;2022-11-15T07:26:16;33.25;;;20.38;;
40290;SDS011;26000;48.304;13.626;2022-11-15T07:28:42;23.27;;;16.75;;
40290;SDS011;26000;48.304;13.626;2022-11-15T07:31:08;20.67;;;14.18;;
40290;SDS011;26000;48.304;13.626;2022-11-15T07:33:34;20.17;;;13.80;;
40290;SDS011;26000;48.304;13.626;2022-11-15T07:36:00;20.73;;;14.30;;
40290;SDS011;26000;48.304;13.626;2022-11-15T07:38:27;18.40;;;13.10;;
40290;SDS011;26000;48.304;13.626;2022-11-15T07:40:57;23.00;;;15.65;;
40290;SDS011;26000;48.304;13.626;2022-11-15T07:43:24;53.95;;;32.45;;
40290;SDS011;26000;48.304;13.626;2022-11-15T07:45:52;81.80;;;49.28;;
40290;SDS011;26000;48.304;13.626;2022-11-15T07:48:18;46.05;;;31.73;;
40290;SDS011;26000;48.304;13.626;2022-11-15T07:50:44;46.05;;;27.95;;
40290;SDS011;26000;48.304;13.626;2022-11-15T07:53:10;23.25;;;16.30;;
40290;SDS011;26000;48.304;13.626;2022-11-15T07:55:36;23.25;;;15.70;;
40290;SDS011;26000;48.304;13.626;2022-11-15T08:00:32;26.10;;;16.83;;
40290;SDS011;26000;48.304;13.626;2022-11-15T08:03:05;50.95;;;30.08;;
40290;SDS011;26000;48.304;13.626;2022-11-15T08:05:32;44.63;;;26.30;;
40290;SDS011;26000;48.304;13.626;2022-11-15T08:07:58;48.25;;;27.33;;
40290;SDS011;26000;48.304;13.626;2022-11-15T08:10:25;52.00;;;31.35;;
40290;SDS011;26000;48.304;13.626;2022-11-15T08:12:58;26.95;;;18.75;;
40290;SDS011;26000;48.304;13.626;2022-11-15T08:15:24;32.25;;;18.58;;
40290;SDS011;26000;48.304;13.626;2022-11-15T08:17:54;37.83;;;22.77;;
40290;SDS011;26000;48.304;13.626;2022-11-15T08:20:24;31.95;;;19.60;;
40290;SDS011;26000;48.304;13.626;2022-11-15T08:22:51;36.90;;;21.38;;
40290;SDS011;26000;48.304;13.626;2022-11-15T08:25:17;31.50;;;20.73;;
40290;SDS011;26000;48.304;13.626;2022-11-15T08:27:43;37.15;;;22.35;;
40290;SDS011;26000;48.304;13.626;2022-11-15T08:30:09;36.17;;;23.33;;
40290;SDS011;26000;48.304;13.626;2022-11-15T08:32:35;34.65;;;21.08;;
40290;SDS011;26000;48.304;13.626;2022-11-15T08:35:00;32.70;;;21.38;;
40290;SDS011;26000;48.304;13.626;2022-11-15T08:37:26;42.28;;;24.05;;
40290;SDS011;26000;48.304;13.626;2022-11-15T08:39:51;45.25;;;27.10;;
40290;SDS011;26000;48.304;13.626;2022-11-15T08:42:17;49.63;;;27.35;;
40290;SDS011;26000;48.304;13.626;2022-11-15T08:44:43;46.65;;;26.73;;
40290;SDS011;26000;48.304;13.626;2022-11-15T08:47:10;51.60;;;28.15;;
40290;SDS011;26000;48.304;13.626;2022-11-15T08:49:37;47.95;;;27.23;;
40290;SDS011;26000;48.304;13.626;2022-11-15T08:52:02;50.00;;;28.02;;
40290;SDS011;26000;48.304;13.626;2022-11-15T08:54:28;48.00;;;26.83;;
40290;SDS011;26000;48.304;13.626;2022-11-15T08:56:54;51.88;;;28.38;;
40290;SDS011;26000;48.304;13.626;2022-11-15T08:59:19;47.78;;;26.90;;
40290;SDS011;26000;48.304;13.626;2022-11-15T09:01:45;44.83;;;26.65;;
40290;SDS011;26000;48.304;13.626;2022-11-15T09:04:11;49.95;;;27.42;;
40290;SDS011;26000;48.304;13.626;2022-11-15T09:06:36;49.40;;;27.92;;
40290;SDS011;26000;48.304;13.626;2022-11-15T09:09:02;48.47;;;27.35;;
40290;SDS011;26000;48.304;13.626;2022-11-15T09:11:28;56.00;;;30.77;;
40290;SDS011;26000;48.304;13.626;2022-11-15T09:13:53;49.42;;;27.73;;
40290;SDS011;26000;48.304;13.626;2022-11-15T09:16:19;64.30;;;32.10;;
40290;SDS011;26000;48.304;13.626;2022-11-15T09:18:45;56.65;;;31.13;;
40290;SDS011;26000;48.304;13.626;2022-11-15T09:21:11;61.22;;;31.65;;
40290;SDS011;26000;48.304;13.626;2022-11-15T09:23:36;57.10;;;31.55;;
40290;SDS011;26000;48.304;13.626;2022-11-15T09:26:03;55.38;;;32.10;;
40290;SDS011;26000;48.304;13.626;2022-11-15T09:28:29;58.35;;;32.83;;
40290;SDS011;26000;48.304;13.626;2022-11-15T09:31:00;65.03;;;33.53;;
40290;SDS011;26000;48.304;13.626;2022-11-15T09:33:27;63.17;;;32.50;;
40290;SDS011;26000;48.304;13.626;2022-11-15T09:35:53;67.32;;;36.42;;
40290;SDS011;26000;48.304;13.626;2022-11-15T09:38:19;68.63;;;36.42;;
40290;SDS011;26000;48.304;13.626;2022-11-15T09:40:46;71.60;;;35.95;;
40290;SDS011;26000;48.304;13.626;2022-11-15T09:43:24;66.45;;;36.45;;
40290;SDS011;26000;48.304;13.626;2022-11-15T09:46:01;79.45;;;37.28;;
40290;SDS011;26000;48.304;13.626;2022-11-15T09:48:57;71.40;;;36.08;;
40290;SDS011;26000;48.304;13.626;2022-11-15T09:51:37;71.35;;;36.42;;
40290;SDS011;26000;48.304;13.626;2022-11-15T09:56:52;75.75;;;37.35;;
40290;SDS011;26000;48.304;13.626;2022-11-15T09:59:36;69.07;;;36.83;;
40290;SDS011;26000;48.304;13.626;2022-11-15T10:02:17;68.22;;;36.30;;
40290;SDS011;26000;48.304;13.626;2022-11-15T10:05:03;66.95;;;35.55;;
40290;SDS011;26000;48.304;13.626;2022-11-15T10:08:03;69.28;;;37.72;;
40290;SDS011;26000;48.304;13.626;2022-11-15T10:13:01;61.15;;;33.30;;
40290;SDS011;26000;48.304;13.626;2022-11-15T10:15:28;59.20;;;34.88;;
40290;SDS011;26000;48.304;13.626;2022-11-15T10:20:29;63.95;;;35.20;;
40290;SDS011;26000;48.304;13.626;2022-11-15T10:23:01;64.60;;;36.13;;
40290;SDS011;26000;48.304;13.626;2022-11-15T10:25:32;73.28;;;36.83;;
40290;SDS011;26000;48.304;13.626;2022-11-15T10:28:15;61.38;;;35.47;;
40290;SDS011;26000;48.304;13.626;2022-11-15T10:30:47;57.22;;;33.75;;
40290;SDS011;26000;48.304;13.626;2022-11-15T10:46:28;53.10;;;31.33;;
40290;SDS011;26000;48.304;13.626;2022-11-15T10:49:03;55.85;;;32.97;;
40290;SDS011;26000;48.304;13.626;2022-11-15T10:51:39;51.17;;;31.48;;
40290;SDS011;26000;48.304;13.626;2022-11-15T10:57:20;56.97;;;33.53;;
40290;SDS011;26000;48.304;13.626;2022-11-15T10:59:55;53.17;;;32.00;;
40290;SDS011;26000;48.304;13.626;2022-11-15T11:02:30;53.35;;;32.67;;
40290;SDS011;26000;48.304;13.626;2022-11-15T11:04:59;57.70;;;33.88;;
40290;SDS011;26000;48.304;13.626;2022-11-15T11:07:26;53.40;;;31.45;;
40290;SDS011;26000;48.304;13.626;2022-11-15T11:10:03;54.90;;;32.15;;
40290;SDS011;26000;48.304;13.626;2022-11-15T11:12:49;55.58;;;32.90;;
40290;SDS011;26000;48.304;13.626;2022-11-15T11:15:15;57.25;;;33.75;;
40290;SDS011;26000;48.304;13.626;2022-11-15T11:17:46;58.60;;;34.13;;
40290;SDS011;26000;48.304;13.626;2022-11-15T11:20:36;52.90;;;32.33;;
40290;SDS011;26000;48.304;13.626;2022-11-15T11:28:55;63.50;;;37.53;;
40290;SDS011;26000;48.304;13.626;2022-11-15T11:31:34;63.58;;;35.30;;
40290;SDS011;26000;48.304;13.626;2022-11-15T11:39:45;60.88;;;33.83;;
40290;SDS011;26000;48.304;13.626;2022-11-15T11:50:53;52.05;;;30.15;;
40290;SDS011;26000;48.304;13.626;2022-11-15T11:54:05;50.10;;;29.75;;
40290;SDS011;26000;48.304;13.626;2022-11-15T11:56:31;48.35;;;28.73;;
40290;SDS011;26000;48.304;13.626;2022-11-15T12:01:53;51.83;;;28.95;;
40290;SDS011;26000;48.304;13.626;2022-11-15T12:04:29;47.78;;;29.38;;
40290;SDS011;26000;48.304;13.626;2022-11-15T12:07:07;45.60;;;28.55;;
40290;SDS011;26000;48.304;13.626;2022-11-15T12:09:44;45.95;;;27.65;;
40290;SDS011;26000;48.304;13.626;2022-11-15T12:17:38;43.35;;;27.55;;
40290;SDS011;26000;48.304;13.626;2022-11-15T12:22:58;47.30;;;27.23;;
40290;SDS011;26000;48.304;13.626;2022-11-15T12:25:31;44.00;;;27.45;;
40290;SDS011;26000;48.304;13.626;2022-11-15T12:28:24;46.60;;;26.67;;
40290;SDS011;26000;48.304;13.626;2022-11-15T12:33:57;49.95;;;28.75;;
40290;SDS011;26000;48.304;13.626;2022-11-15T12:38:53;44.67;;;27.35;;
40290;SDS011;26000;48.304;13.626;2022-11-15T12:41:20;46.53;;;27.88;;
40290;SDS011;26000;48.304;13.626;2022-11-15T12:43:47;46.60;;;27.33;;
40290;SDS011;26000;48.304;13.626;2022-11-15T12:46:59;43.47;;;26.52;;
40290;SDS011;26000;48.304;13.626;2022-11-15T12:49:10;48.13;;;26.63;;
40290;SDS011;26000;48.304;13.626;2022-11-15T13:04:52;58.00;;;29.25;;
40290;SDS011;26000;48.304;13.626;2022-11-15T13:08:06;50.97;;;29.45;;
40290;SDS011;26000;48.304;13.626;2022-11-15T13:33:16;55.88;;;31.13;;
40290;SDS011;26000;48.304;13.626;2022-11-15T13:35:49;58.30;;;31.25;;
40290;SDS011;26000;48.304;13.626;2022-11-15T13:40:49;56.38;;;30.08;;
40290;SDS011;26000;48.304;13.626;2022-11-15T13:48:33;45.47;;;25.08;;
40290;SDS011;26000;48.304;13.626;2022-11-15T13:51:03;45.42;;;25.30;;
40290;SDS011;26000;48.304;13.626;2022-11-15T13:53:33;55.78;;;27.90;;
40290;SDS011;26000;48.304;13.626;2022-11-15T13:56:03;47.22;;;26.52;;
40290;SDS011;26000;48.304;13.626;2022-11-15T13:58:29;50.33;;;26.08;;
40290;SDS011;26000;48.304;13.626;2022-11-15T14:01:02;49.38;;;25.40;;
40290;SDS011;26000;48.304;13.626;2022-11-15T14:03:34;45.75;;;25.90;;
40290;SDS011;26000;48.304;13.626;2022-11-15T14:08:42;46.03;;;24.10;;
40290;SDS011;26000;48.304;13.626;2022-11-15T14:11:25;46.08;;;24.90;;
40290;SDS011;26000;48.304;13.626;2022-11-15T14:16:42;41.03;;;22.92;;
40290;SDS011;26000;48.304;13.626;2022-11-15T14:19:54;49.10;;;24.85;;
40290;SDS011;26000;48.304;13.626;2022-11-15T14:24:34;43.55;;;23.38;;
40290;SDS011;26000;48.304;13.626;2022-11-15T14:29:46;48.08;;;24.42;;
40290;SDS011;26000;48.304;13.626;2022-11-15T14:32:13;44.13;;;23.85;;
40290;SDS011;26000;48.304;13.626;2022-11-15T14:35:02;41.03;;;22.85;;
40290;SDS011;26000;48.304;13.626;2022-11-15T14:37:29;42.88;;;22.58;;
40290;SDS011;26000;48.304;13.626;2022-11-15T14:39:59;54.40;;;25.20;;
40290;SDS011;26000;48.304;13.626;2022-11-15T14:42:25;42.63;;;23.17;;
40290;SDS011;26000;48.304;13.626;2022-11-15T14:44:50;42.88;;;23.65;;
40290;SDS011;26000;48.304;13.626;2022-11-15T14:47:16;47.47;;;24.88;;
40290;SDS011;26000;48.304;13.626;2022-11-15T14:49:42;54.17;;;26.27;;
40290;SDS011;26000;48.304;13.626;2022-11-15T14:54:51;63.83;;;25.90;;
40290;SDS011;26000;48.304;13.626;2022-11-15T14:57:16;69.90;;;26.15;;
40290;SDS011;26000;48.304;13.626;2022-11-15T14:59:42;47.90;;;25.05;;
40290;SDS011;26000;48.304;13.626;2022-11-15T15:02:10;46.88;;;24.50;;
40290;SDS011;26000;48.304;13.626;2022-11-15T15:04:43;46.22;;;23.33;;
40290;SDS011;26000;48.304;13.626;2022-11-15T15:07:09;45.75;;;23.63;;
40290;SDS011;26000;48.304;13.626;2022-11-15T15:09:35;46.47;;;24.40;;
40290;SDS011;26000;48.304;13.626;2022-11-15T15:12:00;44.25;;;23.33;;
40290;SDS011;26000;48.304;13.626;2022-11-15T15:14:26;48.70;;;23.48;;
40290;SDS011;26000;48.304;13.626;2022-11-15T15:16:52;48.28;;;24.08;;
40290;SDS011;26000;48.304;13.626;2022-11-15T15:19:17;65.45;;;25.10;;
40290;SDS011;26000;48.304;13.626;2022-11-15T15:21:43;44.13;;;24.27;;
40290;SDS011;26000;48.304;13.626;2022-11-15T15:24:13;54.47;;;25.25;;
40290;SDS011;26000;48.304;13.626;2022-11-15T15:26:40;50.65;;;23.05;;
40290;SDS011;26000;48.304;13.626;2022-11-15T15:29:05;38.75;;;21.48;;
40290;SDS011;26000;48.304;13.626;2022-11-15T15:31:33;44.35;;;22.50;;
40290;SDS011;26000;48.304;13.626;2022-11-15T15:33:59;38.38;;;22.10;;
40290;SDS011;26000;48.304;13.626;2022-11-15T15:36:25;61.60;;;22.35;;
40290;SDS011;26000;48.304;13.626;2022-11-15T15:38:50;45.90;;;23.10;;
40290;SDS011;26000;48.304;13.626;2022-11-15T15:41:17;55.75;;;23.60;;
40290;SDS011;26000;48.304;13.626;2022-11-15T15:43:43;71.55;;;25.45;;
40290;SDS011;26000;48.304;13.626;2022-11-15T15:46:13;46.38;;;23.65;;
40290;SDS011;26000;48.304;13.626;2022-11-15T15:48:40;47.92;;;23.55;;
40290;SDS011;26000;48.304;13.626;2022-11-15T15:51:06;45.85;;;24.52;;
40290;SDS011;26000;48.304;13.626;2022-11-15T15:53:32;42.95;;;23.17;;
40290;SDS011;26000;48.304;13.626;2022-11-15T15:55:58;43.38;;;24.25;;
40290;SDS011;26000;48.304;13.626;2022-11-15T15:58:24;45.58;;;23.75;;
40290;SDS011;26000;48.304;13.626;2022-11-15T16:00:49;38.95;;;22.52;;
40290;SDS011;26000;48.304;13.626;2022-11-15T16:03:15;43.38;;;22.48;;
40290;SDS011;26000;48.304;13.626;2022-11-15T16:05:41;45.58;;;22.90;;
40290;SDS011;26000;48.304;13.626;2022-11-15T16:08:12;48.58;;;24.33;;
40290;SDS011;26000;48.304;13.626;2022-11-15T16:10:46;43.30;;;23.35;;
40290;SDS011;26000;48.304;13.626;2022-11-15T16:13:11;50.25;;;23.77;;
40290;SDS011;26000;48.304;13.626;2022-11-15T16:15:40;42.08;;;23.73;;
40290;SDS011;26000;48.304;13.626;2022-11-15T16:18:26;42.00;;;22.85;;
40290;SDS011;26000;48.304;13.626;2022-11-15T16:20:51;44.13;;;24.58;;
40290;SDS011;26000;48.304;13.626;2022-11-15T16:23:21;43.08;;;23.38;;
40290;SDS011;26000;48.304;13.626;2022-11-15T16:28:25;43.95;;;24.17;;
40290;SDS011;26000;48.304;13.626;2022-11-15T16:31:05;44.47;;;22.52;;
40290;SDS011;26000;48.304;13.626;2022-11-15T16:33:34;58.15;;;23.23;;
40290;SDS011;26000;48.304;13.626;2022-11-15T16:36:00;47.33;;;23.98;;
40290;SDS011;26000;48.304;13.626;2022-11-15T16:38:26;43.13;;;22.83;;
40290;SDS011;26000;48.304;13.626;2022-11-15T16:40:52;49.08;;;22.75;;
40290;SDS011;26000;48.304;13.626;2022-11-15T16:43:17;46.75;;;24.45;;
40290;SDS011;26000;48.304;13.626;2022-11-15T16:45:43;44.58;;;23.70;;
40290;SDS011;26000;48.304;13.626;2022-11-15T16:48:22;48.53;;;23.77;;
40290;SDS011;26000;48.304;13.626;2022-11-15T16:50:49;64.80;;;24.65;;
40290;SDS011;26000;48.304;13.626;2022-11-15T16:53:18;53.22;;;24.85;;
40290;SDS011;26000;48.304;13.626;2022-11-15T16:55:44;46.67;;;24.48;;
40290;SDS011;26000;48.304;13.626;2022-11-15T16:58:09;51.70;;;24.40;;
40290;SDS011;26000;48.304;13.626;2022-11-15T17:00:35;51.85;;;24.63;;
40290;SDS011;26000;48.304;13.626;2022-11-15T17:03:00;52.65;;;24.90;;
40290;SDS011;26000;48.304;13.626;2022-11-15T17:05:27;46.95;;;24.55;;
40290;SDS011;26000;48.304;13.626;2022-11-15T17:07:53;50.20;;;24.20;;
40290;SDS011;26000;48.304;13.626;2022-11-15T17:10:23;46.22;;;24.17;;
40290;SDS011;26000;48.304;13.626;2022-11-15T17:12:49;40.92;;;23.70;;
40290;SDS011;26000;48.304;13.626;2022-11-15T17:15:15;46.10;;;24.33;;